Terminal Aerodrome Forecast
Issued by NWS

Home | Current Version | Previous Version | Text Only | Print | Product List | Glossary On
Versions: 1 2 3 4 5 6 7 8 9 10 11 12 13 14
000
FTUS45 KLKN 230019 AAA
TAFELY
TAF AMD
KELY 230019Z 2300/2324 25010G20KT P6SM VCSH SCT100 BKN250
     FM230300 20008KT P6SM SCT100 BKN250
     FM232000 35008KT P6SM BKN250=

USA.gov is the U.S. government's official web portal to all federal, state and local government web resources and services.